<?xml version="1.0" encoding="UTF-8" standalone="no" ?>
<gpx xmlns="http://www.topografix.com/GPX/1/1" xmlns:xsi="http://www.w3.org/2001/XMLSchema-instance" xsi:schemaLocation="http://www.topografix.com/GPX/1/1 http://www.topografix.com/GPX/1/1/gpx.xsd" version="1.1" creator="VisuGPX - https://www.visugpx.com">
  <metadata>
    <name>Tour de France 2019</name>
    <desc><![CDATA[4272km en 2 mois en tandem avec notre petit chien dans le panier avant]]></desc>
  </metadata>
  <trk>
    <name><![CDATA[Tracé 20191005-091114]]></name>
    <trkseg>
      <trkpt lat="45.79582" lon="4.84961">
        <ele>265.224</ele>
        <time>2019-10-05T07:12:17Z</time>
      </trkpt>
      <trkpt lat="45.79626" lon="4.84908">
        <ele>260.193</ele>
        <time>2019-10-05T07:18:23Z</time>
      </trkpt>
      <trkpt lat="45.7958" lon="4.84826">
        <ele>259.792</ele>
        <time>2019-10-05T07:18:56Z</time>
      </trkpt>
      <trkpt lat="45.7953" lon="4.84764">
        <ele>261.787</ele>
        <time>2019-10-05T07:19:29Z</time>
      </trkpt>
      <trkpt lat="45.79466" lon="4.84805">
        <ele>263.468</ele>
        <time>2019-10-05T07:20:02Z</time>
      </trkpt>
      <trkpt lat="45.79412" lon="4.84919">
        <ele>270.808</ele>
        <time>2019-10-05T07:20:32Z</time>
      </trkpt>
      <trkpt lat="45.79281" lon="4.84892">
        <ele>283.664</ele>
        <time>2019-10-05T07:21:02Z</time>
      </trkpt>
      <trkpt lat="45.79116" lon="4.8485">
        <ele>280.624</ele>
        <time>2019-10-05T07:21:32Z</time>
      </trkpt>
      <trkpt lat="45.79014" lon="4.84906">
        <ele>267.42</ele>
        <time>2019-10-05T07:22:02Z</time>
      </trkpt>
      <trkpt lat="45.79189" lon="4.84958">
        <ele>252.108</ele>
        <time>2019-10-05T07:22:32Z</time>
      </trkpt>
      <trkpt lat="45.79305" lon="4.85126">
        <ele>255.998</ele>
        <time>2019-10-05T07:23:02Z</time>
      </trkpt>
      <trkpt lat="45.79219" lon="4.85386">
        <ele>250.139</ele>
        <time>2019-10-05T07:24:57Z</time>
      </trkpt>
      <trkpt lat="45.79048" lon="4.85449">
        <ele>244.395</ele>
        <time>2019-10-05T07:25:27Z</time>
      </trkpt>
      <trkpt lat="45.78935" lon="4.85372">
        <ele>220.101</ele>
        <time>2019-10-05T07:25:57Z</time>
      </trkpt>
      <trkpt lat="45.78935" lon="4.85287">
        <ele>195.719</ele>
        <time>2019-10-05T07:26:30Z</time>
      </trkpt>
      <trkpt lat="45.78857" lon="4.85312">
        <ele>193.642</ele>
        <time>2019-10-05T07:27:03Z</time>
      </trkpt>
      <trkpt lat="45.78811" lon="4.85317">
        <ele>176.332</ele>
        <time>2019-10-05T07:27:33Z</time>
      </trkpt>
      <trkpt lat="45.7879" lon="4.8543">
        <ele>169.929</ele>
        <time>2019-10-05T07:28:03Z</time>
      </trkpt>
      <trkpt lat="45.78679" lon="4.85455">
        <ele>173.748</ele>
        <time>2019-10-05T07:28:33Z</time>
      </trkpt>
      <trkpt lat="45.78612" lon="4.85517">
        <ele>172.461</ele>
        <time>2019-10-05T07:29:06Z</time>
      </trkpt>
      <trkpt lat="45.78631" lon="4.85689">
        <ele>165.54</ele>
        <time>2019-10-05T07:29:36Z</time>
      </trkpt>
      <trkpt lat="45.78624" lon="4.85883">
        <ele>161.75</ele>
        <time>2019-10-05T07:30:06Z</time>
      </trkpt>
      <trkpt lat="45.78616" lon="4.8607">
        <ele>162.054</ele>
        <time>2019-10-05T07:30:36Z</time>
      </trkpt>
      <trkpt lat="45.78598" lon="4.86251">
        <ele>165.69</ele>
        <time>2019-10-05T07:31:06Z</time>
      </trkpt>
      <trkpt lat="45.78575" lon="4.86382">
        <ele>170.742</ele>
        <time>2019-10-05T07:31:36Z</time>
      </trkpt>
      <trkpt lat="45.78599" lon="4.86558">
        <ele>172.847</ele>
        <time>2019-10-05T07:32:06Z</time>
      </trkpt>
      <trkpt lat="45.78643" lon="4.86744">
        <ele>176.311</ele>
        <time>2019-10-05T07:32:39Z</time>
      </trkpt>
      <trkpt lat="45.78685" lon="4.86875">
        <ele>176.707</ele>
        <time>2019-10-05T07:33:09Z</time>
      </trkpt>
      <trkpt lat="45.78734" lon="4.87029">
        <ele>178.49</ele>
        <time>2019-10-05T07:33:39Z</time>
      </trkpt>
      <trkpt lat="45.78743" lon="4.87202">
        <ele>171.798</ele>
        <time>2019-10-05T07:34:09Z</time>
      </trkpt>
      <trkpt lat="45.78762" lon="4.87374">
        <ele>171.397</ele>
        <time>2019-10-05T07:34:39Z</time>
      </trkpt>
      <trkpt lat="45.7878" lon="4.87534">
        <ele>173.63</ele>
        <time>2019-10-05T07:35:09Z</time>
      </trkpt>
      <trkpt lat="45.78794" lon="4.87662">
        <ele>172.518</ele>
        <time>2019-10-05T07:37:12Z</time>
      </trkpt>
      <trkpt lat="45.78852" lon="4.87718">
        <ele>172.197</ele>
        <time>2019-10-05T07:38:06Z</time>
      </trkpt>
      <trkpt lat="45.78964" lon="4.87821">
        <ele>167.826</ele>
        <time>2019-10-05T07:38:36Z</time>
      </trkpt>
      <trkpt lat="45.79072" lon="4.87921">
        <ele>169.931</ele>
        <time>2019-10-05T07:39:06Z</time>
      </trkpt>
      <trkpt lat="45.79188" lon="4.88027">
        <ele>173.128</ele>
        <time>2019-10-05T07:39:36Z</time>
      </trkpt>
      <trkpt lat="45.79291" lon="4.8813">
        <ele>172.855</ele>
        <time>2019-10-05T07:40:06Z</time>
      </trkpt>
      <trkpt lat="45.79292" lon="4.88315">
        <ele>174.022</ele>
        <time>2019-10-05T07:40:36Z</time>
      </trkpt>
      <trkpt lat="45.79204" lon="4.88429">
        <ele>179.466</ele>
        <time>2019-10-05T07:41:06Z</time>
      </trkpt>
      <trkpt lat="45.7911" lon="4.8854">
        <ele>177.865</ele>
        <time>2019-10-05T07:41:36Z</time>
      </trkpt>
      <trkpt lat="45.78982" lon="4.88659">
        <ele>173.767</ele>
        <time>2019-10-05T07:42:09Z</time>
      </trkpt>
      <trkpt lat="45.7888" lon="4.88781">
        <ele>176.325</ele>
        <time>2019-10-05T07:42:39Z</time>
      </trkpt>
      <trkpt lat="45.78816" lon="4.8892">
        <ele>180.847</ele>
        <time>2019-10-05T07:43:09Z</time>
      </trkpt>
      <trkpt lat="45.78742" lon="4.89036">
        <ele>178.058</ele>
        <time>2019-10-05T07:43:39Z</time>
      </trkpt>
      <trkpt lat="45.78639" lon="4.89141">
        <ele>180.949</ele>
        <time>2019-10-05T07:44:09Z</time>
      </trkpt>
      <trkpt lat="45.78533" lon="4.89205">
        <ele>179.06</ele>
        <time>2019-10-05T07:44:39Z</time>
      </trkpt>
      <trkpt lat="45.78454" lon="4.89251">
        <ele>186.355</ele>
        <time>2019-10-05T07:48:39Z</time>
      </trkpt>
      <trkpt lat="45.7832" lon="4.89317">
        <ele>183.802</ele>
        <time>2019-10-05T07:49:12Z</time>
      </trkpt>
      <trkpt lat="45.78175" lon="4.89389">
        <ele>173.822</ele>
        <time>2019-10-05T07:49:42Z</time>
      </trkpt>
      <trkpt lat="45.78032" lon="4.89478">
        <ele>175.383</ele>
        <time>2019-10-05T07:50:12Z</time>
      </trkpt>
      <trkpt lat="45.779" lon="4.89586">
        <ele>177.032</ele>
        <time>2019-10-05T07:50:42Z</time>
      </trkpt>
      <trkpt lat="45.7777" lon="4.89692">
        <ele>180.053</ele>
        <time>2019-10-05T07:51:12Z</time>
      </trkpt>
      <trkpt lat="45.77633" lon="4.89803">
        <ele>180.9</ele>
        <time>2019-10-05T07:51:42Z</time>
      </trkpt>
      <trkpt lat="45.77499" lon="4.89912">
        <ele>183.884</ele>
        <time>2019-10-05T07:52:12Z</time>
      </trkpt>
      <trkpt lat="45.77357" lon="4.90022">
        <ele>181.401</ele>
        <time>2019-10-05T07:52:42Z</time>
      </trkpt>
      <trkpt lat="45.77207" lon="4.90146">
        <ele>179.727</ele>
        <time>2019-10-05T07:53:15Z</time>
      </trkpt>
      <trkpt lat="45.77068" lon="4.90259">
        <ele>178.893</ele>
        <time>2019-10-05T07:53:45Z</time>
      </trkpt>
      <trkpt lat="45.7693" lon="4.90388">
        <ele>181.614</ele>
        <time>2019-10-05T07:54:15Z</time>
      </trkpt>
      <trkpt lat="45.76833" lon="4.90558">
        <ele>185.223</ele>
        <time>2019-10-05T07:54:45Z</time>
      </trkpt>
      <trkpt lat="45.76796" lon="4.90765">
        <ele>185.415</ele>
        <time>2019-10-05T07:55:15Z</time>
      </trkpt>
      <trkpt lat="45.76725" lon="4.90947">
        <ele>183.564</ele>
        <time>2019-10-05T07:55:45Z</time>
      </trkpt>
      <trkpt lat="45.76674" lon="4.91129">
        <ele>185.039</ele>
        <time>2019-10-05T07:56:15Z</time>
      </trkpt>
      <trkpt lat="45.76676" lon="4.91284">
        <ele>187.869</ele>
        <time>2019-10-05T07:56:48Z</time>
      </trkpt>
      <trkpt lat="45.76686" lon="4.91362">
        <ele>190.111</ele>
        <time>2019-10-05T08:00:57Z</time>
      </trkpt>
      <trkpt lat="45.76677" lon="4.91484">
        <ele>192.528</ele>
        <time>2019-10-05T08:01:33Z</time>
      </trkpt>
      <trkpt lat="45.76679" lon="4.91658">
        <ele>191.065</ele>
        <time>2019-10-05T08:02:03Z</time>
      </trkpt>
      <trkpt lat="45.767" lon="4.91849">
        <ele>190.678</ele>
        <time>2019-10-05T08:02:33Z</time>
      </trkpt>
      <trkpt lat="45.76733" lon="4.92071">
        <ele>190.217</ele>
        <time>2019-10-05T08:03:03Z</time>
      </trkpt>
      <trkpt lat="45.7678" lon="4.92284">
        <ele>191.559</ele>
        <time>2019-10-05T08:03:33Z</time>
      </trkpt>
      <trkpt lat="45.76858" lon="4.92559">
        <ele>190.816</ele>
        <time>2019-10-05T08:04:06Z</time>
      </trkpt>
      <trkpt lat="45.76884" lon="4.92773">
        <ele>186.611</ele>
        <time>2019-10-05T08:04:36Z</time>
      </trkpt>
      <trkpt lat="45.76922" lon="4.92956">
        <ele>185.571</ele>
        <time>2019-10-05T08:05:06Z</time>
      </trkpt>
      <trkpt lat="45.7694" lon="4.93179">
        <ele>183.936</ele>
        <time>2019-10-05T08:05:36Z</time>
      </trkpt>
      <trkpt lat="45.76998" lon="4.93402">
        <ele>185.838</ele>
        <time>2019-10-05T08:06:06Z</time>
      </trkpt>
      <trkpt lat="45.77072" lon="4.93591">
        <ele>184.51</ele>
        <time>2019-10-05T08:06:36Z</time>
      </trkpt>
      <trkpt lat="45.77151" lon="4.93806">
        <ele>183.322</ele>
        <time>2019-10-05T08:07:06Z</time>
      </trkpt>
      <trkpt lat="45.77246" lon="4.94011">
        <ele>183.906</ele>
        <time>2019-10-05T08:07:36Z</time>
      </trkpt>
      <trkpt lat="45.77356" lon="4.94239">
        <ele>184.693</ele>
        <time>2019-10-05T08:08:09Z</time>
      </trkpt>
      <trkpt lat="45.77362" lon="4.94489">
        <ele>179.467</ele>
        <time>2019-10-05T08:08:39Z</time>
      </trkpt>
      <trkpt lat="45.77324" lon="4.94728">
        <ele>178.706</ele>
        <time>2019-10-05T08:09:09Z</time>
      </trkpt>
      <trkpt lat="45.77337" lon="4.94972">
        <ele>181.094</ele>
        <time>2019-10-05T08:09:39Z</time>
      </trkpt>
      <trkpt lat="45.77398" lon="4.95199">
        <ele>185.101</ele>
        <time>2019-10-05T08:10:09Z</time>
      </trkpt>
      <trkpt lat="45.77486" lon="4.95398">
        <ele>184.721</ele>
        <time>2019-10-05T08:10:39Z</time>
      </trkpt>
      <trkpt lat="45.77543" lon="4.95613">
        <ele>183.589</ele>
        <time>2019-10-05T08:11:09Z</time>
      </trkpt>
      <trkpt lat="45.77639" lon="4.95834">
        <ele>187.745</ele>
        <time>2019-10-05T08:11:42Z</time>
      </trkpt>
      <trkpt lat="45.77726" lon="4.96049">
        <ele>185.501</ele>
        <time>2019-10-05T08:12:12Z</time>
      </trkpt>
      <trkpt lat="45.77813" lon="4.96279">
        <ele>185.116</ele>
        <time>2019-10-05T08:12:42Z</time>
      </trkpt>
      <trkpt lat="45.77877" lon="4.96484">
        <ele>186.562</ele>
        <time>2019-10-05T08:13:12Z</time>
      </trkpt>
      <trkpt lat="45.77854" lon="4.96705">
        <ele>184.53</ele>
        <time>2019-10-05T08:13:42Z</time>
      </trkpt>
      <trkpt lat="45.77808" lon="4.96935">
        <ele>183.209</ele>
        <time>2019-10-05T08:14:12Z</time>
      </trkpt>
      <trkpt lat="45.77772" lon="4.97172">
        <ele>181.216</ele>
        <time>2019-10-05T08:14:42Z</time>
      </trkpt>
      <trkpt lat="45.77762" lon="4.97429">
        <ele>185.277</ele>
        <time>2019-10-05T08:15:12Z</time>
      </trkpt>
      <trkpt lat="45.77819" lon="4.97683">
        <ele>186.087</ele>
        <time>2019-10-05T08:15:45Z</time>
      </trkpt>
      <trkpt lat="45.77927" lon="4.97889">
        <ele>190.055</ele>
        <time>2019-10-05T08:16:15Z</time>
      </trkpt>
      <trkpt lat="45.77914" lon="4.9809">
        <ele>189.069</ele>
        <time>2019-10-05T08:16:45Z</time>
      </trkpt>
      <trkpt lat="45.77911" lon="4.98243">
        <ele>192.348</ele>
        <time>2019-10-05T08:17:15Z</time>
      </trkpt>
      <trkpt lat="45.7794" lon="4.98455">
        <ele>194.316</ele>
        <time>2019-10-05T08:17:45Z</time>
      </trkpt>
      <trkpt lat="45.7799" lon="4.98605">
        <ele>192.06</ele>
        <time>2019-10-05T08:18:15Z</time>
      </trkpt>
      <trkpt lat="45.78121" lon="4.98768">
        <ele>188.303</ele>
        <time>2019-10-05T08:18:45Z</time>
      </trkpt>
      <trkpt lat="45.78305" lon="4.98906">
        <ele>181.796</ele>
        <time>2019-10-05T08:19:18Z</time>
      </trkpt>
      <trkpt lat="45.78381" lon="4.9902">
        <ele>185.219</ele>
        <time>2019-10-05T08:19:48Z</time>
      </trkpt>
      <trkpt lat="45.78531" lon="4.9906">
        <ele>187.749</ele>
        <time>2019-10-05T08:20:18Z</time>
      </trkpt>
      <trkpt lat="45.78672" lon="4.98988">
        <ele>191.612</ele>
        <time>2019-10-05T08:20:48Z</time>
      </trkpt>
      <trkpt lat="45.78758" lon="4.98941">
        <ele>191</ele>
        <time>2019-10-05T08:21:21Z</time>
      </trkpt>
      <trkpt lat="45.7882" lon="4.98926">
        <ele>189.781</ele>
        <time>2019-10-05T08:23:15Z</time>
      </trkpt>
      <trkpt lat="45.7897" lon="4.98939">
        <ele>189.258</ele>
        <time>2019-10-05T08:23:45Z</time>
      </trkpt>
      <trkpt lat="45.79146" lon="4.98991">
        <ele>183.255</ele>
        <time>2019-10-05T08:24:18Z</time>
      </trkpt>
      <trkpt lat="45.79273" lon="4.98972">
        <ele>183.764</ele>
        <time>2019-10-05T08:24:48Z</time>
      </trkpt>
      <trkpt lat="45.79347" lon="4.99019">
        <ele>179.072</ele>
        <time>2019-10-05T08:25:18Z</time>
      </trkpt>
      <trkpt lat="45.79439" lon="4.99107">
        <ele>184.725</ele>
        <time>2019-10-05T08:25:48Z</time>
      </trkpt>
      <trkpt lat="45.79447" lon="4.99277">
        <ele>182.531</ele>
        <time>2019-10-05T08:26:18Z</time>
      </trkpt>
      <trkpt lat="45.7936" lon="4.99447">
        <ele>181.968</ele>
        <time>2019-10-05T08:26:48Z</time>
      </trkpt>
      <trkpt lat="45.79213" lon="4.99568">
        <ele>181.797</ele>
        <time>2019-10-05T08:27:18Z</time>
      </trkpt>
      <trkpt lat="45.79089" lon="4.99697">
        <ele>187.311</ele>
        <time>2019-10-05T08:27:48Z</time>
      </trkpt>
      <trkpt lat="45.7896" lon="4.99869">
        <ele>184.057</ele>
        <time>2019-10-05T08:28:21Z</time>
      </trkpt>
      <trkpt lat="45.78825" lon="4.99992">
        <ele>184.428</ele>
        <time>2019-10-05T08:28:51Z</time>
      </trkpt>
      <trkpt lat="45.78715" lon="5.00175">
        <ele>188.154</ele>
        <time>2019-10-05T08:29:21Z</time>
      </trkpt>
      <trkpt lat="45.7865" lon="5.0037">
        <ele>189.886</ele>
        <time>2019-10-05T08:29:51Z</time>
      </trkpt>
      <trkpt lat="45.78603" lon="5.00598">
        <ele>186.2</ele>
        <time>2019-10-05T08:30:21Z</time>
      </trkpt>
      <trkpt lat="45.78585" lon="5.00842">
        <ele>183.02</ele>
        <time>2019-10-05T08:30:51Z</time>
      </trkpt>
      <trkpt lat="45.78608" lon="5.01043">
        <ele>182.2</ele>
        <time>2019-10-05T08:31:21Z</time>
      </trkpt>
      <trkpt lat="45.78645" lon="5.01144">
        <ele>185.518</ele>
        <time>2019-10-05T08:36:45Z</time>
      </trkpt>
      <trkpt lat="45.78601" lon="5.01365">
        <ele>184.278</ele>
        <time>2019-10-05T08:37:15Z</time>
      </trkpt>
      <trkpt lat="45.78542" lon="5.01549">
        <ele>189.621</ele>
        <time>2019-10-05T08:37:45Z</time>
      </trkpt>
      <trkpt lat="45.78529" lon="5.01759">
        <ele>187.467</ele>
        <time>2019-10-05T08:38:15Z</time>
      </trkpt>
      <trkpt lat="45.78559" lon="5.01961">
        <ele>184.634</ele>
        <time>2019-10-05T08:38:45Z</time>
      </trkpt>
      <trkpt lat="45.78635" lon="5.02149">
        <ele>188.248</ele>
        <time>2019-10-05T08:39:15Z</time>
      </trkpt>
      <trkpt lat="45.78742" lon="5.02279">
        <ele>191.669</ele>
        <time>2019-10-05T08:39:45Z</time>
      </trkpt>
      <trkpt lat="45.7885" lon="5.02445">
        <ele>186.005</ele>
        <time>2019-10-05T08:40:15Z</time>
      </trkpt>
      <trkpt lat="45.78919" lon="5.02593">
        <ele>186.09</ele>
        <time>2019-10-05T08:40:48Z</time>
      </trkpt>
      <trkpt lat="45.79007" lon="5.02666">
        <ele>192.409</ele>
        <time>2019-10-05T08:41:18Z</time>
      </trkpt>
      <trkpt lat="45.79118" lon="5.02768">
        <ele>192.273</ele>
        <time>2019-10-05T08:41:48Z</time>
      </trkpt>
      <trkpt lat="45.79245" lon="5.02891">
        <ele>193.109</ele>
        <time>2019-10-05T08:42:18Z</time>
      </trkpt>
      <trkpt lat="45.79374" lon="5.03017">
        <ele>196.5</ele>
        <time>2019-10-05T08:42:48Z</time>
      </trkpt>
      <trkpt lat="45.79488" lon="5.03165">
        <ele>192.248</ele>
        <time>2019-10-05T08:43:18Z</time>
      </trkpt>
      <trkpt lat="45.79532" lon="5.03362">
        <ele>186.775</ele>
        <time>2019-10-05T08:43:48Z</time>
      </trkpt>
      <trkpt lat="45.7958" lon="5.03603">
        <ele>187.824</ele>
        <time>2019-10-05T08:44:21Z</time>
      </trkpt>
      <trkpt lat="45.79651" lon="5.03799">
        <ele>189.284</ele>
        <time>2019-10-05T08:44:51Z</time>
      </trkpt>
      <trkpt lat="45.79761" lon="5.03943">
        <ele>190.684</ele>
        <time>2019-10-05T08:45:21Z</time>
      </trkpt>
      <trkpt lat="45.79844" lon="5.04038">
        <ele>192.791</ele>
        <time>2019-10-05T08:45:51Z</time>
      </trkpt>
      <trkpt lat="45.79971" lon="5.04196">
        <ele>191.43</ele>
        <time>2019-10-05T08:46:21Z</time>
      </trkpt>
      <trkpt lat="45.80056" lon="5.04355">
        <ele>188.082</ele>
        <time>2019-10-05T08:46:51Z</time>
      </trkpt>
      <trkpt lat="45.80157" lon="5.04525">
        <ele>185.229</ele>
        <time>2019-10-05T08:47:21Z</time>
      </trkpt>
      <trkpt lat="45.80224" lon="5.04733">
        <ele>186.59</ele>
        <time>2019-10-05T08:47:54Z</time>
      </trkpt>
      <trkpt lat="45.80286" lon="5.04933">
        <ele>185.903</ele>
        <time>2019-10-05T08:48:24Z</time>
      </trkpt>
      <trkpt lat="45.80359" lon="5.05121">
        <ele>185.381</ele>
        <time>2019-10-05T08:48:54Z</time>
      </trkpt>
      <trkpt lat="45.8043" lon="5.05315">
        <ele>187.845</ele>
        <time>2019-10-05T08:49:24Z</time>
      </trkpt>
      <trkpt lat="45.80459" lon="5.05513">
        <ele>187.697</ele>
        <time>2019-10-05T08:49:54Z</time>
      </trkpt>
      <trkpt lat="45.80505" lon="5.05733">
        <ele>190.408</ele>
        <time>2019-10-05T08:50:24Z</time>
      </trkpt>
      <trkpt lat="45.80544" lon="5.05944">
        <ele>192.895</ele>
        <time>2019-10-05T08:50:54Z</time>
      </trkpt>
      <trkpt lat="45.80593" lon="5.06147">
        <ele>191.277</ele>
        <time>2019-10-05T08:51:24Z</time>
      </trkpt>
      <trkpt lat="45.80657" lon="5.06348">
        <ele>188.568</ele>
        <time>2019-10-05T08:51:57Z</time>
      </trkpt>
      <trkpt lat="45.80717" lon="5.06555">
        <ele>186.88</ele>
        <time>2019-10-05T08:52:27Z</time>
      </trkpt>
      <trkpt lat="45.80769" lon="5.0675">
        <ele>190.906</ele>
        <time>2019-10-05T08:52:57Z</time>
      </trkpt>
      <trkpt lat="45.80791" lon="5.06956">
        <ele>189.337</ele>
        <time>2019-10-05T08:53:27Z</time>
      </trkpt>
      <trkpt lat="45.80833" lon="5.07142">
        <ele>189.215</ele>
        <time>2019-10-05T08:53:57Z</time>
      </trkpt>
      <trkpt lat="45.80907" lon="5.07352">
        <ele>186.002</ele>
        <time>2019-10-05T08:54:27Z</time>
      </trkpt>
      <trkpt lat="45.8095" lon="5.07546">
        <ele>187.885</ele>
        <time>2019-10-05T08:54:57Z</time>
      </trkpt>
      <trkpt lat="45.80974" lon="5.07758">
        <ele>188.338</ele>
        <time>2019-10-05T08:55:30Z</time>
      </trkpt>
      <trkpt lat="45.80967" lon="5.07808">
        <ele>194.539</ele>
        <time>2019-10-05T08:56:33Z</time>
      </trkpt>
      <trkpt lat="45.80932" lon="5.078">
        <ele>204.455</ele>
        <time>2019-10-05T08:57:09Z</time>
      </trkpt>
      <trkpt lat="45.80917" lon="5.07808">
        <ele>208.051</ele>
        <time>2019-10-05T08:57:45Z</time>
      </trkpt>
      <trkpt lat="45.80885" lon="5.0782">
        <ele>211.868</ele>
        <time>2019-10-05T08:58:18Z</time>
      </trkpt>
      <trkpt lat="45.80833" lon="5.0783">
        <ele>215.616</ele>
        <time>2019-10-05T08:59:06Z</time>
      </trkpt>
      <trkpt lat="45.80799" lon="5.07837">
        <ele>218.351</ele>
        <time>2019-10-05T09:00:18Z</time>
      </trkpt>
      <trkpt lat="45.80729" lon="5.07858">
        <ele>218.768</ele>
        <time>2019-10-05T09:00:48Z</time>
      </trkpt>
      <trkpt lat="45.80635" lon="5.07927">
        <ele>220.596</ele>
        <time>2019-10-05T09:01:21Z</time>
      </trkpt>
      <trkpt lat="45.80609" lon="5.07931">
        <ele>217.117</ele>
        <time>2019-10-05T09:02:36Z</time>
      </trkpt>
      <trkpt lat="45.80514" lon="5.08012">
        <ele>215.9</ele>
        <time>2019-10-05T09:03:06Z</time>
      </trkpt>
      <trkpt lat="45.80414" lon="5.08074">
        <ele>215.818</ele>
        <time>2019-10-05T09:03:36Z</time>
      </trkpt>
      <trkpt lat="45.80298" lon="5.08183">
        <ele>214.356</ele>
        <time>2019-10-05T09:04:06Z</time>
      </trkpt>
      <trkpt lat="45.80188" lon="5.08351">
        <ele>213.177</ele>
        <time>2019-10-05T09:04:36Z</time>
      </trkpt>
      <trkpt lat="45.80084" lon="5.08422">
        <ele>213.274</ele>
        <time>2019-10-05T09:05:06Z</time>
      </trkpt>
      <trkpt lat="45.79908" lon="5.08489">
        <ele>214.774</ele>
        <time>2019-10-05T09:05:39Z</time>
      </trkpt>
      <trkpt lat="45.79819" lon="5.08513">
        <ele>213.425</ele>
        <time>2019-10-05T09:06:09Z</time>
      </trkpt>
      <trkpt lat="45.79736" lon="5.08493">
        <ele>215.126</ele>
        <time>2019-10-05T09:06:39Z</time>
      </trkpt>
      <trkpt lat="45.79639" lon="5.08481">
        <ele>218.359</ele>
        <time>2019-10-05T09:07:09Z</time>
      </trkpt>
      <trkpt lat="45.79521" lon="5.08435">
        <ele>216.962</ele>
        <time>2019-10-05T09:07:39Z</time>
      </trkpt>
      <trkpt lat="45.79413" lon="5.085">
        <ele>221.823</ele>
        <time>2019-10-05T09:08:09Z</time>
      </trkpt>
      <trkpt lat="45.79328" lon="5.08612">
        <ele>220.731</ele>
        <time>2019-10-05T09:08:39Z</time>
      </trkpt>
      <trkpt lat="45.79239" lon="5.08767">
        <ele>220.343</ele>
        <time>2019-10-05T09:09:12Z</time>
      </trkpt>
      <trkpt lat="45.79126" lon="5.09009">
        <ele>213.397</ele>
        <time>2019-10-05T09:09:42Z</time>
      </trkpt>
      <trkpt lat="45.7893" lon="5.09104">
        <ele>207.865</ele>
        <time>2019-10-05T09:10:12Z</time>
      </trkpt>
      <trkpt lat="45.78802" lon="5.09008">
        <ele>213.087</ele>
        <time>2019-10-05T09:10:42Z</time>
      </trkpt>
      <trkpt lat="45.78742" lon="5.08902">
        <ele>213.764</ele>
        <time>2019-10-05T09:11:12Z</time>
      </trkpt>
      <trkpt lat="45.78649" lon="5.08892">
        <ele>214.96</ele>
        <time>2019-10-05T09:11:42Z</time>
      </trkpt>
      <trkpt lat="45.78546" lon="5.08909">
        <ele>216.558</ele>
        <time>2019-10-05T09:12:12Z</time>
      </trkpt>
      <trkpt lat="45.78454" lon="5.08922">
        <ele>220.157</ele>
        <time>2019-10-05T09:12:42Z</time>
      </trkpt>
      <trkpt lat="45.78431" lon="5.09059">
        <ele>220.788</ele>
        <time>2019-10-05T09:13:15Z</time>
      </trkpt>
      <trkpt lat="45.78386" lon="5.09257">
        <ele>219.461</ele>
        <time>2019-10-05T09:13:45Z</time>
      </trkpt>
      <trkpt lat="45.7834" lon="5.09464">
        <ele>219.247</ele>
        <time>2019-10-05T09:14:15Z</time>
      </trkpt>
      <trkpt lat="45.783" lon="5.09634">
        <ele>220.69</ele>
        <time>2019-10-05T09:14:45Z</time>
      </trkpt>
      <trkpt lat="45.78266" lon="5.09783">
        <ele>223.15</ele>
        <time>2019-10-05T09:15:15Z</time>
      </trkpt>
      <trkpt lat="45.78225" lon="5.09961">
        <ele>224.226</ele>
        <time>2019-10-05T09:15:45Z</time>
      </trkpt>
      <trkpt lat="45.78174" lon="5.10213">
        <ele>220.378</ele>
        <time>2019-10-05T09:16:15Z</time>
      </trkpt>
      <trkpt lat="45.78113" lon="5.1046">
        <ele>220.154</ele>
        <time>2019-10-05T09:16:48Z</time>
      </trkpt>
      <trkpt lat="45.78056" lon="5.10597">
        <ele>224.781</ele>
        <time>2019-10-05T09:17:18Z</time>
      </trkpt>
      <trkpt lat="45.78024" lon="5.10662">
        <ele>226.599</ele>
        <time>2019-10-05T09:18:06Z</time>
      </trkpt>
      <trkpt lat="45.78051" lon="5.10706">
        <ele>227.035</ele>
        <time>2019-10-05T09:20:30Z</time>
      </trkpt>
      <trkpt lat="45.78007" lon="5.10812">
        <ele>233.129</ele>
        <time>2019-10-05T09:21:00Z</time>
      </trkpt>
      <trkpt lat="45.77962" lon="5.10943">
        <ele>234.503</ele>
        <time>2019-10-05T09:21:30Z</time>
      </trkpt>
      <trkpt lat="45.77929" lon="5.11104">
        <ele>234.982</ele>
        <time>2019-10-05T09:22:00Z</time>
      </trkpt>
      <trkpt lat="45.77877" lon="5.11295">
        <ele>233.024</ele>
        <time>2019-10-05T09:22:30Z</time>
      </trkpt>
      <trkpt lat="45.77842" lon="5.11529">
        <ele>232.703</ele>
        <time>2019-10-05T09:23:03Z</time>
      </trkpt>
      <trkpt lat="45.77797" lon="5.11693">
        <ele>232.858</ele>
        <time>2019-10-05T09:23:33Z</time>
      </trkpt>
      <trkpt lat="45.7777" lon="5.11828">
        <ele>236.038</ele>
        <time>2019-10-05T09:24:03Z</time>
      </trkpt>
      <trkpt lat="45.77654" lon="5.11854">
        <ele>238.207</ele>
        <time>2019-10-05T09:24:33Z</time>
      </trkpt>
      <trkpt lat="45.77499" lon="5.11796">
        <ele>239.159</ele>
        <time>2019-10-05T09:25:03Z</time>
      </trkpt>
      <trkpt lat="45.77352" lon="5.11786">
        <ele>237.394</ele>
        <time>2019-10-05T09:25:33Z</time>
      </trkpt>
      <trkpt lat="45.77208" lon="5.11773">
        <ele>236.303</ele>
        <time>2019-10-05T09:26:03Z</time>
      </trkpt>
      <trkpt lat="45.77054" lon="5.11783">
        <ele>238.059</ele>
        <time>2019-10-05T09:26:36Z</time>
      </trkpt>
      <trkpt lat="45.7691" lon="5.11797">
        <ele>239.516</ele>
        <time>2019-10-05T09:27:06Z</time>
      </trkpt>
      <trkpt lat="45.76774" lon="5.11801">
        <ele>238.141</ele>
        <time>2019-10-05T09:27:36Z</time>
      </trkpt>
      <trkpt lat="45.76698" lon="5.11878">
        <ele>237.452</ele>
        <time>2019-10-05T09:28:06Z</time>
      </trkpt>
      <trkpt lat="45.76712" lon="5.11877">
        <ele>238.876</ele>
        <time>2019-10-05T09:31:18Z</time>
      </trkpt>
      <trkpt lat="45.76807" lon="5.11973">
        <ele>240.981</ele>
        <time>2019-10-05T09:31:48Z</time>
      </trkpt>
      <trkpt lat="45.76882" lon="5.12118">
        <ele>240.431</ele>
        <time>2019-10-05T09:32:18Z</time>
      </trkpt>
      <trkpt lat="45.76956" lon="5.12268">
        <ele>242.637</ele>
        <time>2019-10-05T09:32:48Z</time>
      </trkpt>
      <trkpt lat="45.7703" lon="5.1242">
        <ele>243.411</ele>
        <time>2019-10-05T09:33:21Z</time>
      </trkpt>
      <trkpt lat="45.77097" lon="5.12552">
        <ele>246.839</ele>
        <time>2019-10-05T09:33:51Z</time>
      </trkpt>
      <trkpt lat="45.77164" lon="5.12685">
        <ele>249.672</ele>
        <time>2019-10-05T09:34:21Z</time>
      </trkpt>
      <trkpt lat="45.77236" lon="5.12824">
        <ele>251.652</ele>
        <time>2019-10-05T09:34:51Z</time>
      </trkpt>
      <trkpt lat="45.77308" lon="5.12972">
        <ele>252.988</ele>
        <time>2019-10-05T09:35:21Z</time>
      </trkpt>
      <trkpt lat="45.77477" lon="5.13188">
        <ele>244.597</ele>
        <time>2019-10-05T09:35:51Z</time>
      </trkpt>
      <trkpt lat="45.77757" lon="5.13335">
        <ele>234.995</ele>
        <time>2019-10-05T09:36:21Z</time>
      </trkpt>
      <trkpt lat="45.78007" lon="5.13316">
        <ele>230.362</ele>
        <time>2019-10-05T09:36:54Z</time>
      </trkpt>
      <trkpt lat="45.78218" lon="5.13267">
        <ele>228.92</ele>
        <time>2019-10-05T09:37:24Z</time>
      </trkpt>
      <trkpt lat="45.78412" lon="5.1321">
        <ele>225.302</ele>
        <time>2019-10-05T09:37:54Z</time>
      </trkpt>
      <trkpt lat="45.7861" lon="5.13193">
        <ele>223.141</ele>
        <time>2019-10-05T09:38:24Z</time>
      </trkpt>
      <trkpt lat="45.78857" lon="5.13207">
        <ele>217.565</ele>
        <time>2019-10-05T09:38:54Z</time>
      </trkpt>
      <trkpt lat="45.7901" lon="5.13279">
        <ele>214.527</ele>
        <time>2019-10-05T09:39:24Z</time>
      </trkpt>
      <trkpt lat="45.79022" lon="5.13279">
        <ele>214.359</ele>
        <time>2019-10-05T09:48:15Z</time>
      </trkpt>
      <trkpt lat="45.79045" lon="5.13379">
        <ele>217.547</ele>
        <time>2019-10-05T09:48:48Z</time>
      </trkpt>
      <trkpt lat="45.79044" lon="5.13523">
        <ele>219.937</ele>
        <time>2019-10-05T09:49:18Z</time>
      </trkpt>
      <trkpt lat="45.79026" lon="5.13676">
        <ele>222.196</ele>
        <time>2019-10-05T09:49:48Z</time>
      </trkpt>
      <trkpt lat="45.78953" lon="5.13858">
        <ele>224.08</ele>
        <time>2019-10-05T09:50:18Z</time>
      </trkpt>
      <trkpt lat="45.78852" lon="5.14091">
        <ele>220.727</ele>
        <time>2019-10-05T09:50:48Z</time>
      </trkpt>
      <trkpt lat="45.78743" lon="5.14343">
        <ele>217.635</ele>
        <time>2019-10-05T09:51:18Z</time>
      </trkpt>
      <trkpt lat="45.78651" lon="5.14555">
        <ele>218.014</ele>
        <time>2019-10-05T09:51:48Z</time>
      </trkpt>
      <trkpt lat="45.78648" lon="5.14726">
        <ele>217.674</ele>
        <time>2019-10-05T09:52:18Z</time>
      </trkpt>
      <trkpt lat="45.78706" lon="5.15071">
        <ele>213.435</ele>
        <time>2019-10-05T09:52:51Z</time>
      </trkpt>
      <trkpt lat="45.78759" lon="5.15369">
        <ele>207.762</ele>
        <time>2019-10-05T09:53:21Z</time>
      </trkpt>
      <trkpt lat="45.78811" lon="5.15678">
        <ele>205.814</ele>
        <time>2019-10-05T09:53:51Z</time>
      </trkpt>
      <trkpt lat="45.78853" lon="5.15922">
        <ele>205.389</ele>
        <time>2019-10-05T09:54:21Z</time>
      </trkpt>
      <trkpt lat="45.78897" lon="5.1618">
        <ele>204.783</ele>
        <time>2019-10-05T09:54:51Z</time>
      </trkpt>
      <trkpt lat="45.78938" lon="5.16426">
        <ele>206.59</ele>
        <time>2019-10-05T09:55:21Z</time>
      </trkpt>
      <trkpt lat="45.78973" lon="5.16649">
        <ele>205.305</ele>
        <time>2019-10-05T09:55:51Z</time>
      </trkpt>
      <trkpt lat="45.79046" lon="5.16935">
        <ele>200.213</ele>
        <time>2019-10-05T09:56:24Z</time>
      </trkpt>
      <trkpt lat="45.79083" lon="5.17088">
        <ele>199.84</ele>
        <time>2019-10-05T09:56:54Z</time>
      </trkpt>
      <trkpt lat="45.79086" lon="5.17118">
        <ele>201.88</ele>
        <time>2019-10-05T10:02:51Z</time>
      </trkpt>
      <trkpt lat="45.79153" lon="5.1723">
        <ele>202.436</ele>
        <time>2019-10-05T10:03:21Z</time>
      </trkpt>
      <trkpt lat="45.79223" lon="5.17352">
        <ele>201.343</ele>
        <time>2019-10-05T10:03:51Z</time>
      </trkpt>
      <trkpt lat="45.79365" lon="5.17437">
        <ele>205.183</ele>
        <time>2019-10-05T10:04:21Z</time>
      </trkpt>
      <trkpt lat="45.79388" lon="5.1749">
        <ele>196.106</ele>
        <time>2019-10-05T10:05:06Z</time>
      </trkpt>
      <trkpt lat="45.79391" lon="5.17495">
        <ele>186.951</ele>
        <time>2019-10-05T10:48:36Z</time>
      </trkpt>
      <trkpt lat="45.7936" lon="5.17436">
        <ele>193.911</ele>
        <time>2019-10-05T10:55:12Z</time>
      </trkpt>
      <trkpt lat="45.79307" lon="5.17406">
        <ele>205.064</ele>
        <time>2019-10-05T10:55:42Z</time>
      </trkpt>
      <trkpt lat="45.79238" lon="5.17362">
        <ele>207.897</ele>
        <time>2019-10-05T10:56:12Z</time>
      </trkpt>
      <trkpt lat="45.79176" lon="5.17285">
        <ele>210.711</ele>
        <time>2019-10-05T10:56:42Z</time>
      </trkpt>
      <trkpt lat="45.79106" lon="5.17131">
        <ele>204.661</ele>
        <time>2019-10-05T10:57:12Z</time>
      </trkpt>
      <trkpt lat="45.79049" lon="5.16992">
        <ele>201.863</ele>
        <time>2019-10-05T10:57:42Z</time>
      </trkpt>
      <trkpt lat="45.7896" lon="5.16978">
        <ele>203.702</ele>
        <time>2019-10-05T10:58:12Z</time>
      </trkpt>
      <trkpt lat="45.78873" lon="5.16996">
        <ele>208.255</ele>
        <time>2019-10-05T10:58:45Z</time>
      </trkpt>
      <trkpt lat="45.78794" lon="5.17012">
        <ele>211.032</ele>
        <time>2019-10-05T10:59:15Z</time>
      </trkpt>
      <trkpt lat="45.78718" lon="5.16988">
        <ele>212.05</ele>
        <time>2019-10-05T10:59:45Z</time>
      </trkpt>
      <trkpt lat="45.78653" lon="5.16954">
        <ele>217.188</ele>
        <time>2019-10-05T11:00:15Z</time>
      </trkpt>
      <trkpt lat="45.78599" lon="5.16928">
        <ele>220.454</ele>
        <time>2019-10-05T11:00:45Z</time>
      </trkpt>
      <trkpt lat="45.78547" lon="5.16904">
        <ele>225.005</ele>
        <time>2019-10-05T11:01:15Z</time>
      </trkpt>
      <trkpt lat="45.78483" lon="5.16875">
        <ele>225.771</ele>
        <time>2019-10-05T11:01:45Z</time>
      </trkpt>
      <trkpt lat="45.78381" lon="5.16865">
        <ele>228.089</ele>
        <time>2019-10-05T11:02:18Z</time>
      </trkpt>
      <trkpt lat="45.78153" lon="5.16865">
        <ele>218.485</ele>
        <time>2019-10-05T11:02:48Z</time>
      </trkpt>
      <trkpt lat="45.77985" lon="5.17089">
        <ele>213.924</ele>
        <time>2019-10-05T11:03:18Z</time>
      </trkpt>
      <trkpt lat="45.77882" lon="5.17263">
        <ele>213.057</ele>
        <time>2019-10-05T11:03:48Z</time>
      </trkpt>
      <trkpt lat="45.77766" lon="5.17465">
        <ele>212.525</ele>
        <time>2019-10-05T11:04:18Z</time>
      </trkpt>
      <trkpt lat="45.77683" lon="5.17763">
        <ele>204.245</ele>
        <time>2019-10-05T11:04:48Z</time>
      </trkpt>
      <trkpt lat="45.77624" lon="5.18129">
        <ele>200.209</ele>
        <time>2019-10-05T11:05:18Z</time>
      </trkpt>
      <trkpt lat="45.7753" lon="5.18368">
        <ele>196.18</ele>
        <time>2019-10-05T11:05:48Z</time>
      </trkpt>
      <trkpt lat="45.77288" lon="5.18571">
        <ele>186.412</ele>
        <time>2019-10-05T11:06:21Z</time>
      </trkpt>
      <trkpt lat="45.77212" lon="5.18787">
        <ele>188.388</ele>
        <time>2019-10-05T11:06:51Z</time>
      </trkpt>
      <trkpt lat="45.77132" lon="5.18983">
        <ele>192.516</ele>
        <time>2019-10-05T11:07:21Z</time>
      </trkpt>
      <trkpt lat="45.77029" lon="5.19136">
        <ele>194.322</ele>
        <time>2019-10-05T11:07:51Z</time>
      </trkpt>
      <trkpt lat="45.76903" lon="5.19246">
        <ele>196.017</ele>
        <time>2019-10-05T11:08:21Z</time>
      </trkpt>
      <trkpt lat="45.76811" lon="5.19367">
        <ele>196.728</ele>
        <time>2019-10-05T11:08:51Z</time>
      </trkpt>
      <trkpt lat="45.76726" lon="5.19486">
        <ele>204.158</ele>
        <time>2019-10-05T11:09:21Z</time>
      </trkpt>
      <trkpt lat="45.76653" lon="5.19609">
        <ele>199.972</ele>
        <time>2019-10-05T11:09:54Z</time>
      </trkpt>
      <trkpt lat="45.76757" lon="5.19746">
        <ele>203.928</ele>
        <time>2019-10-05T11:10:24Z</time>
      </trkpt>
      <trkpt lat="45.76887" lon="5.19917">
        <ele>199.33</ele>
        <time>2019-10-05T11:10:54Z</time>
      </trkpt>
      <trkpt lat="45.76918" lon="5.20129">
        <ele>196.895</ele>
        <time>2019-10-05T11:11:24Z</time>
      </trkpt>
      <trkpt lat="45.769" lon="5.20328">
        <ele>194.472</ele>
        <time>2019-10-05T11:11:54Z</time>
      </trkpt>
      <trkpt lat="45.76853" lon="5.2056">
        <ele>194.919</ele>
        <time>2019-10-05T11:12:24Z</time>
      </trkpt>
      <trkpt lat="45.76834" lon="5.20738">
        <ele>195.963</ele>
        <time>2019-10-05T11:12:54Z</time>
      </trkpt>
      <trkpt lat="45.77003" lon="5.20834">
        <ele>193.885</ele>
        <time>2019-10-05T11:13:24Z</time>
      </trkpt>
      <trkpt lat="45.77045" lon="5.20988">
        <ele>193.767</ele>
        <time>2019-10-05T11:13:57Z</time>
      </trkpt>
      <trkpt lat="45.76949" lon="5.21061">
        <ele>196.306</ele>
        <time>2019-10-05T11:14:27Z</time>
      </trkpt>
      <trkpt lat="45.7684" lon="5.21198">
        <ele>196.453</ele>
        <time>2019-10-05T11:14:57Z</time>
      </trkpt>
      <trkpt lat="45.76741" lon="5.21362">
        <ele>192.921</ele>
        <time>2019-10-05T11:15:27Z</time>
      </trkpt>
      <trkpt lat="45.76704" lon="5.21573">
        <ele>191.529</ele>
        <time>2019-10-05T11:15:57Z</time>
      </trkpt>
      <trkpt lat="45.7669" lon="5.21782">
        <ele>191.959</ele>
        <time>2019-10-05T11:16:27Z</time>
      </trkpt>
      <trkpt lat="45.76682" lon="5.21997">
        <ele>191.848</ele>
        <time>2019-10-05T11:16:57Z</time>
      </trkpt>
      <trkpt lat="45.76594" lon="5.22111">
        <ele>194.041</ele>
        <time>2019-10-05T11:17:30Z</time>
      </trkpt>
      <trkpt lat="45.76509" lon="5.22269">
        <ele>194.976</ele>
        <time>2019-10-05T11:18:00Z</time>
      </trkpt>
      <trkpt lat="45.76425" lon="5.22351">
        <ele>199.898</ele>
        <time>2019-10-05T11:18:30Z</time>
      </trkpt>
      <trkpt lat="45.7643" lon="5.22472">
        <ele>203.579</ele>
        <time>2019-10-05T11:19:00Z</time>
      </trkpt>
      <trkpt lat="45.76555" lon="5.22574">
        <ele>201.55</ele>
        <time>2019-10-05T11:19:30Z</time>
      </trkpt>
      <trkpt lat="45.7666" lon="5.22698">
        <ele>200.384</ele>
        <time>2019-10-05T11:20:00Z</time>
      </trkpt>
      <trkpt lat="45.76745" lon="5.2281">
        <ele>202.353</ele>
        <time>2019-10-05T11:20:30Z</time>
      </trkpt>
      <trkpt lat="45.76843" lon="5.22947">
        <ele>199.773</ele>
        <time>2019-10-05T11:21:03Z</time>
      </trkpt>
      <trkpt lat="45.76934" lon="5.23075">
        <ele>198.793</ele>
        <time>2019-10-05T11:21:33Z</time>
      </trkpt>
      <trkpt lat="45.77035" lon="5.23191">
        <ele>200.237</ele>
        <time>2019-10-05T11:22:03Z</time>
      </trkpt>
      <trkpt lat="45.77127" lon="5.23301">
        <ele>199.949</ele>
        <time>2019-10-05T11:22:33Z</time>
      </trkpt>
      <trkpt lat="45.77244" lon="5.23459">
        <ele>197.71</ele>
        <time>2019-10-05T11:23:03Z</time>
      </trkpt>
      <trkpt lat="45.77332" lon="5.23605">
        <ele>193.338</ele>
        <time>2019-10-05T11:23:33Z</time>
      </trkpt>
      <trkpt lat="45.7739" lon="5.23702">
        <ele>198.131</ele>
        <time>2019-10-05T11:24:03Z</time>
      </trkpt>
      <trkpt lat="45.77434" lon="5.23789">
        <ele>201.942</ele>
        <time>2019-10-05T11:24:33Z</time>
      </trkpt>
      <trkpt lat="45.77491" lon="5.23902">
        <ele>204.99</ele>
        <time>2019-10-05T11:25:06Z</time>
      </trkpt>
      <trkpt lat="45.7754" lon="5.23981">
        <ele>209.069</ele>
        <time>2019-10-05T11:28:09Z</time>
      </trkpt>
      <trkpt lat="45.77625" lon="5.24099">
        <ele>202.473</ele>
        <time>2019-10-05T11:28:39Z</time>
      </trkpt>
      <trkpt lat="45.77639" lon="5.24216">
        <ele>201.619</ele>
        <time>2019-10-05T11:29:09Z</time>
      </trkpt>
      <trkpt lat="45.77571" lon="5.24358">
        <ele>202.204</ele>
        <time>2019-10-05T11:29:39Z</time>
      </trkpt>
      <trkpt lat="45.77502" lon="5.245">
        <ele>202.17</ele>
        <time>2019-10-05T11:30:09Z</time>
      </trkpt>
      <trkpt lat="45.77435" lon="5.24645">
        <ele>201.835</ele>
        <time>2019-10-05T11:30:39Z</time>
      </trkpt>
      <trkpt lat="45.77358" lon="5.24806">
        <ele>202.216</ele>
        <time>2019-10-05T11:31:12Z</time>
      </trkpt>
      <trkpt lat="45.77284" lon="5.24974">
        <ele>200.323</ele>
        <time>2019-10-05T11:31:42Z</time>
      </trkpt>
      <trkpt lat="45.77211" lon="5.25133">
        <ele>200.449</ele>
        <time>2019-10-05T11:32:12Z</time>
      </trkpt>
      <trkpt lat="45.7714" lon="5.25286">
        <ele>203.417</ele>
        <time>2019-10-05T11:32:42Z</time>
      </trkpt>
      <trkpt lat="45.77072" lon="5.25432">
        <ele>206.378</ele>
        <time>2019-10-05T11:33:12Z</time>
      </trkpt>
      <trkpt lat="45.77046" lon="5.25576">
        <ele>203.754</ele>
        <time>2019-10-05T11:33:42Z</time>
      </trkpt>
      <trkpt lat="45.77068" lon="5.25741">
        <ele>202.496</ele>
        <time>2019-10-05T11:34:12Z</time>
      </trkpt>
      <trkpt lat="45.77141" lon="5.25929">
        <ele>202.069</ele>
        <time>2019-10-05T11:34:42Z</time>
      </trkpt>
      <trkpt lat="45.77197" lon="5.2614">
        <ele>202.246</ele>
        <time>2019-10-05T11:35:15Z</time>
      </trkpt>
      <trkpt lat="45.7725" lon="5.26336">
        <ele>205.312</ele>
        <time>2019-10-05T11:35:45Z</time>
      </trkpt>
      <trkpt lat="45.77292" lon="5.26494">
        <ele>208.954</ele>
        <time>2019-10-05T11:36:15Z</time>
      </trkpt>
      <trkpt lat="45.77321" lon="5.26601">
        <ele>212.585</ele>
        <time>2019-10-05T11:36:45Z</time>
      </trkpt>
      <trkpt lat="45.77349" lon="5.26695">
        <ele>214.604</ele>
        <time>2019-10-05T11:37:15Z</time>
      </trkpt>
      <trkpt lat="45.77385" lon="5.26828">
        <ele>214.568</ele>
        <time>2019-10-05T11:37:45Z</time>
      </trkpt>
      <trkpt lat="45.77413" lon="5.26998">
        <ele>219.365</ele>
        <time>2019-10-05T11:38:15Z</time>
      </trkpt>
      <trkpt lat="45.77486" lon="5.27125">
        <ele>221.697</ele>
        <time>2019-10-05T11:38:48Z</time>
      </trkpt>
      <trkpt lat="45.77557" lon="5.27158">
        <ele>224.373</ele>
        <time>2019-10-05T11:39:18Z</time>
      </trkpt>
      <trkpt lat="45.77629" lon="5.27229">
        <ele>229.353</ele>
        <time>2019-10-05T11:39:48Z</time>
      </trkpt>
      <trkpt lat="45.77663" lon="5.27349">
        <ele>230.788</ele>
        <time>2019-10-05T11:40:18Z</time>
      </trkpt>
      <trkpt lat="45.7766" lon="5.2749">
        <ele>229.273</ele>
        <time>2019-10-05T11:40:48Z</time>
      </trkpt>
      <trkpt lat="45.77636" lon="5.27635">
        <ele>228.564</ele>
        <time>2019-10-05T11:41:18Z</time>
      </trkpt>
      <trkpt lat="45.7762" lon="5.27798">
        <ele>227.244</ele>
        <time>2019-10-05T11:41:48Z</time>
      </trkpt>
      <trkpt lat="45.77601" lon="5.2792">
        <ele>231.655</ele>
        <time>2019-10-05T11:42:21Z</time>
      </trkpt>
      <trkpt lat="45.77614" lon="5.27995">
        <ele>239.787</ele>
        <time>2019-10-05T11:42:51Z</time>
      </trkpt>
      <trkpt lat="45.77617" lon="5.28076">
        <ele>246.623</ele>
        <time>2019-10-05T11:43:21Z</time>
      </trkpt>
      <trkpt lat="45.77647" lon="5.28121">
        <ele>250.846</ele>
        <time>2019-10-05T11:43:51Z</time>
      </trkpt>
      <trkpt lat="45.77739" lon="5.28152">
        <ele>256.667</ele>
        <time>2019-10-05T11:44:21Z</time>
      </trkpt>
      <trkpt lat="45.77837" lon="5.28218">
        <ele>255.948</ele>
        <time>2019-10-05T11:44:51Z</time>
      </trkpt>
      <trkpt lat="45.77935" lon="5.28307">
        <ele>246.391</ele>
        <time>2019-10-05T11:45:21Z</time>
      </trkpt>
      <trkpt lat="45.78029" lon="5.28349">
        <ele>243.283</ele>
        <time>2019-10-05T11:45:51Z</time>
      </trkpt>
      <trkpt lat="45.781" lon="5.28385">
        <ele>253.828</ele>
        <time>2019-10-05T11:46:24Z</time>
      </trkpt>
      <trkpt lat="45.78211" lon="5.28424">
        <ele>254.798</ele>
        <time>2019-10-05T11:46:54Z</time>
      </trkpt>
      <trkpt lat="45.7836" lon="5.28427">
        <ele>250.121</ele>
        <time>2019-10-05T11:47:24Z</time>
      </trkpt>
      <trkpt lat="45.78532" lon="5.28515">
        <ele>248.923</ele>
        <time>2019-10-05T11:47:54Z</time>
      </trkpt>
      <trkpt lat="45.78726" lon="5.286">
        <ele>240.119</ele>
        <time>2019-10-05T11:48:24Z</time>
      </trkpt>
      <trkpt lat="45.78936" lon="5.28697">
        <ele>230.318</ele>
        <time>2019-10-05T11:48:54Z</time>
      </trkpt>
      <trkpt lat="45.7917" lon="5.28765">
        <ele>222.048</ele>
        <time>2019-10-05T11:49:24Z</time>
      </trkpt>
      <trkpt lat="45.79278" lon="5.28841">
        <ele>222.622</ele>
        <time>2019-10-05T11:49:57Z</time>
      </trkpt>
      <trkpt lat="45.79364" lon="5.28968">
        <ele>224.228</ele>
        <time>2019-10-05T11:50:27Z</time>
      </trkpt>
      <trkpt lat="45.79407" lon="5.29049">
        <ele>229.905</ele>
        <time>2019-10-05T11:50:57Z</time>
      </trkpt>
      <trkpt lat="45.79448" lon="5.29104">
        <ele>232.546</ele>
        <time>2019-10-05T11:51:27Z</time>
      </trkpt>
      <trkpt lat="45.79543" lon="5.29174">
        <ele>234.861</ele>
        <time>2019-10-05T11:51:57Z</time>
      </trkpt>
      <trkpt lat="45.79698" lon="5.29292">
        <ele>236.164</ele>
        <time>2019-10-05T11:52:27Z</time>
      </trkpt>
      <trkpt lat="45.79762" lon="5.29514">
        <ele>222.437</ele>
        <time>2019-10-05T11:52:57Z</time>
      </trkpt>
      <trkpt lat="45.79893" lon="5.29516">
        <ele>221.174</ele>
        <time>2019-10-05T11:53:27Z</time>
      </trkpt>
      <trkpt lat="45.80047" lon="5.29401">
        <ele>215.544</ele>
        <time>2019-10-05T11:54:00Z</time>
      </trkpt>
      <trkpt lat="45.8008" lon="5.29271">
        <ele>213.664</ele>
        <time>2019-10-05T11:57:51Z</time>
      </trkpt>
      <trkpt lat="45.80232" lon="5.29133">
        <ele>211.527</ele>
        <time>2019-10-05T11:58:21Z</time>
      </trkpt>
      <trkpt lat="45.80345" lon="5.29244">
        <ele>210.645</ele>
        <time>2019-10-05T11:58:51Z</time>
      </trkpt>
      <trkpt lat="45.80395" lon="5.29426">
        <ele>210.312</ele>
        <time>2019-10-05T11:59:21Z</time>
      </trkpt>
      <trkpt lat="45.80431" lon="5.29604">
        <ele>213.349</ele>
        <time>2019-10-05T11:59:51Z</time>
      </trkpt>
      <trkpt lat="45.80466" lon="5.29722">
        <ele>209.555</ele>
        <time>2019-10-05T12:00:21Z</time>
      </trkpt>
      <trkpt lat="45.80433" lon="5.29913">
        <ele>209.359</ele>
        <time>2019-10-05T12:00:54Z</time>
      </trkpt>
      <trkpt lat="45.8039" lon="5.30078">
        <ele>212.282</ele>
        <time>2019-10-05T12:01:24Z</time>
      </trkpt>
      <trkpt lat="45.80449" lon="5.30147">
        <ele>212.804</ele>
        <time>2019-10-05T12:01:54Z</time>
      </trkpt>
      <trkpt lat="45.80592" lon="5.30196">
        <ele>211.648</ele>
        <time>2019-10-05T12:02:24Z</time>
      </trkpt>
      <trkpt lat="45.80726" lon="5.3024">
        <ele>210.368</ele>
        <time>2019-10-05T12:02:54Z</time>
      </trkpt>
      <trkpt lat="45.80859" lon="5.30274">
        <ele>211.709</ele>
        <time>2019-10-05T12:03:24Z</time>
      </trkpt>
      <trkpt lat="45.80958" lon="5.30151">
        <ele>211.429</ele>
        <time>2019-10-05T12:03:54Z</time>
      </trkpt>
      <trkpt lat="45.81051" lon="5.29966">
        <ele>217.083</ele>
        <time>2019-10-05T12:04:27Z</time>
      </trkpt>
      <trkpt lat="45.81153" lon="5.29796">
        <ele>213.472</ele>
        <time>2019-10-05T12:04:57Z</time>
      </trkpt>
      <trkpt lat="45.81254" lon="5.29855">
        <ele>209.985</ele>
        <time>2019-10-05T12:05:27Z</time>
      </trkpt>
      <trkpt lat="45.81329" lon="5.29708">
        <ele>208.134</ele>
        <time>2019-10-05T12:05:57Z</time>
      </trkpt>
      <trkpt lat="45.81407" lon="5.29578">
        <ele>208.01</ele>
        <time>2019-10-05T12:06:27Z</time>
      </trkpt>
      <trkpt lat="45.81541" lon="5.29613">
        <ele>208.342</ele>
        <time>2019-10-05T12:06:57Z</time>
      </trkpt>
      <trkpt lat="45.81682" lon="5.29708">
        <ele>206.043</ele>
        <time>2019-10-05T12:07:27Z</time>
      </trkpt>
      <trkpt lat="45.8183" lon="5.29789">
        <ele>204.155</ele>
        <time>2019-10-05T12:07:57Z</time>
      </trkpt>
      <trkpt lat="45.82099" lon="5.29751">
        <ele>199.503</ele>
        <time>2019-10-05T12:08:30Z</time>
      </trkpt>
      <trkpt lat="45.82302" lon="5.29761">
        <ele>192.985</ele>
        <time>2019-10-05T12:09:00Z</time>
      </trkpt>
      <trkpt lat="45.82446" lon="5.29825">
        <ele>193.548</ele>
        <time>2019-10-05T12:09:30Z</time>
      </trkpt>
      <trkpt lat="45.8259" lon="5.29795">
        <ele>193.198</ele>
        <time>2019-10-05T12:10:00Z</time>
      </trkpt>
      <trkpt lat="45.82688" lon="5.29839">
        <ele>205.768</ele>
        <time>2019-10-05T12:10:30Z</time>
      </trkpt>
      <trkpt lat="45.82794" lon="5.29881">
        <ele>202.118</ele>
        <time>2019-10-05T12:11:00Z</time>
      </trkpt>
      <trkpt lat="45.82923" lon="5.29955">
        <ele>200.045</ele>
        <time>2019-10-05T12:11:30Z</time>
      </trkpt>
      <trkpt lat="45.8306" lon="5.30031">
        <ele>196.276</ele>
        <time>2019-10-05T12:12:03Z</time>
      </trkpt>
      <trkpt lat="45.83202" lon="5.30086">
        <ele>196.744</ele>
        <time>2019-10-05T12:12:33Z</time>
      </trkpt>
      <trkpt lat="45.83333" lon="5.30156">
        <ele>200.116</ele>
        <time>2019-10-05T12:13:03Z</time>
      </trkpt>
      <trkpt lat="45.8344" lon="5.30216">
        <ele>202.001</ele>
        <time>2019-10-05T12:13:33Z</time>
      </trkpt>
      <trkpt lat="45.8355" lon="5.30279">
        <ele>202.269</ele>
        <time>2019-10-05T12:14:03Z</time>
      </trkpt>
      <trkpt lat="45.83659" lon="5.30339">
        <ele>204.16</ele>
        <time>2019-10-05T12:14:33Z</time>
      </trkpt>
      <trkpt lat="45.83786" lon="5.30415">
        <ele>202.843</ele>
        <time>2019-10-05T12:15:03Z</time>
      </trkpt>
      <trkpt lat="45.83909" lon="5.30492">
        <ele>202.124</ele>
        <time>2019-10-05T12:15:33Z</time>
      </trkpt>
      <trkpt lat="45.84062" lon="5.30577">
        <ele>197.757</ele>
        <time>2019-10-05T12:16:06Z</time>
      </trkpt>
      <trkpt lat="45.84169" lon="5.30681">
        <ele>195.41</ele>
        <time>2019-10-05T12:16:36Z</time>
      </trkpt>
      <trkpt lat="45.84286" lon="5.30763">
        <ele>196.646</ele>
        <time>2019-10-05T12:17:06Z</time>
      </trkpt>
      <trkpt lat="45.8439" lon="5.30882">
        <ele>198.325</ele>
        <time>2019-10-05T12:17:36Z</time>
      </trkpt>
      <trkpt lat="45.84501" lon="5.30991">
        <ele>198.875</ele>
        <time>2019-10-05T12:18:06Z</time>
      </trkpt>
      <trkpt lat="45.84612" lon="5.31109">
        <ele>201.505</ele>
        <time>2019-10-05T12:18:36Z</time>
      </trkpt>
      <trkpt lat="45.84736" lon="5.31227">
        <ele>194.033</ele>
        <time>2019-10-05T12:19:06Z</time>
      </trkpt>
      <trkpt lat="45.84856" lon="5.31357">
        <ele>193.531</ele>
        <time>2019-10-05T12:19:39Z</time>
      </trkpt>
      <trkpt lat="45.84971" lon="5.31471">
        <ele>192.118</ele>
        <time>2019-10-05T12:20:09Z</time>
      </trkpt>
      <trkpt lat="45.85066" lon="5.31606">
        <ele>195.3</ele>
        <time>2019-10-05T12:20:39Z</time>
      </trkpt>
      <trkpt lat="45.85055" lon="5.31786">
        <ele>204.829</ele>
        <time>2019-10-05T12:21:09Z</time>
      </trkpt>
      <trkpt lat="45.85046" lon="5.31988">
        <ele>204.318</ele>
        <time>2019-10-05T12:21:39Z</time>
      </trkpt>
      <trkpt lat="45.85018" lon="5.32186">
        <ele>210.325</ele>
        <time>2019-10-05T12:22:09Z</time>
      </trkpt>
      <trkpt lat="45.85026" lon="5.32367">
        <ele>198.748</ele>
        <time>2019-10-05T12:22:39Z</time>
      </trkpt>
      <trkpt lat="45.85086" lon="5.32531">
        <ele>195.29</ele>
        <time>2019-10-05T12:23:09Z</time>
      </trkpt>
      <trkpt lat="45.85153" lon="5.32702">
        <ele>195.762</ele>
        <time>2019-10-05T12:23:42Z</time>
      </trkpt>
      <trkpt lat="45.85177" lon="5.32874">
        <ele>205.499</ele>
        <time>2019-10-05T12:24:12Z</time>
      </trkpt>
      <trkpt lat="45.8515" lon="5.33061">
        <ele>209.206</ele>
        <time>2019-10-05T12:24:42Z</time>
      </trkpt>
      <trkpt lat="45.85232" lon="5.33165">
        <ele>206.14</ele>
        <time>2019-10-05T12:25:12Z</time>
      </trkpt>
      <trkpt lat="45.85368" lon="5.33199">
        <ele>205.897</ele>
        <time>2019-10-05T12:25:42Z</time>
      </trkpt>
      <trkpt lat="45.85499" lon="5.33251">
        <ele>207.323</ele>
        <time>2019-10-05T12:26:12Z</time>
      </trkpt>
      <trkpt lat="45.85629" lon="5.33287">
        <ele>206.223</ele>
        <time>2019-10-05T12:26:42Z</time>
      </trkpt>
      <trkpt lat="45.85774" lon="5.33369">
        <ele>201.349</ele>
        <time>2019-10-05T12:27:15Z</time>
      </trkpt>
      <trkpt lat="45.85888" lon="5.33437">
        <ele>201.672</ele>
        <time>2019-10-05T12:27:45Z</time>
      </trkpt>
      <trkpt lat="45.85976" lon="5.335">
        <ele>206.282</ele>
        <time>2019-10-05T12:28:15.001Z</time>
      </trkpt>
      <trkpt lat="45.86077" lon="5.33552">
        <ele>204.47</ele>
        <time>2019-10-05T12:28:45Z</time>
      </trkpt>
      <trkpt lat="45.86189" lon="5.33576">
        <ele>206.309</ele>
        <time>2019-10-05T12:29:15Z</time>
      </trkpt>
      <trkpt lat="45.86293" lon="5.33604">
        <ele>212.866</ele>
        <time>2019-10-05T12:29:45Z</time>
      </trkpt>
      <trkpt lat="45.86383" lon="5.33632">
        <ele>202.48</ele>
        <time>2019-10-05T12:30:15Z</time>
      </trkpt>
      <trkpt lat="45.86485" lon="5.33656">
        <ele>204.022</ele>
        <time>2019-10-05T12:30:48Z</time>
      </trkpt>
      <trkpt lat="45.86578" lon="5.33698">
        <ele>201.035</ele>
        <time>2019-10-05T12:31:18Z</time>
      </trkpt>
      <trkpt lat="45.86658" lon="5.33747">
        <ele>202.668</ele>
        <time>2019-10-05T12:31:48Z</time>
      </trkpt>
      <trkpt lat="45.8673" lon="5.33787">
        <ele>202.717</ele>
        <time>2019-10-05T12:32:18Z</time>
      </trkpt>
      <trkpt lat="45.86815" lon="5.3385">
        <ele>202.833</ele>
        <time>2019-10-05T12:32:48Z</time>
      </trkpt>
      <trkpt lat="45.86888" lon="5.33968">
        <ele>203.04</ele>
        <time>2019-10-05T12:33:18Z</time>
      </trkpt>
      <trkpt lat="45.86957" lon="5.34078">
        <ele>205.546</ele>
        <time>2019-10-05T12:33:48Z</time>
      </trkpt>
      <trkpt lat="45.87043" lon="5.34196">
        <ele>204.4</ele>
        <time>2019-10-05T12:34:18Z</time>
      </trkpt>
      <trkpt lat="45.87126" lon="5.34311">
        <ele>203.51</ele>
        <time>2019-10-05T12:34:51Z</time>
      </trkpt>
      <trkpt lat="45.87252" lon="5.34385">
        <ele>200.972</ele>
        <time>2019-10-05T12:35:21Z</time>
      </trkpt>
      <trkpt lat="45.8738" lon="5.34476">
        <ele>200.572</ele>
        <time>2019-10-05T12:35:51Z</time>
      </trkpt>
      <trkpt lat="45.87516" lon="5.34575">
        <ele>202.282</ele>
        <time>2019-10-05T12:36:21Z</time>
      </trkpt>
      <trkpt lat="45.87663" lon="5.34677">
        <ele>198.743</ele>
        <time>2019-10-05T12:36:51Z</time>
      </trkpt>
      <trkpt lat="45.87815" lon="5.34789">
        <ele>196.894</ele>
        <time>2019-10-05T12:37:21Z</time>
      </trkpt>
      <trkpt lat="45.87998" lon="5.34768">
        <ele>196.018</ele>
        <time>2019-10-05T12:37:51Z</time>
      </trkpt>
      <trkpt lat="45.88133" lon="5.34765">
        <ele>203.816</ele>
        <time>2019-10-05T12:38:24Z</time>
      </trkpt>
      <trkpt lat="45.88239" lon="5.34761">
        <ele>211.129</ele>
        <time>2019-10-05T12:38:54Z</time>
      </trkpt>
      <trkpt lat="45.88374" lon="5.34759">
        <ele>204.798</ele>
        <time>2019-10-05T12:39:24Z</time>
      </trkpt>
      <trkpt lat="45.88501" lon="5.34842">
        <ele>202.368</ele>
        <time>2019-10-05T12:39:54Z</time>
      </trkpt>
      <trkpt lat="45.88534" lon="5.3511">
        <ele>197.256</ele>
        <time>2019-10-05T12:40:24Z</time>
      </trkpt>
      <trkpt lat="45.88555" lon="5.35321">
        <ele>193.78</ele>
        <time>2019-10-05T12:40:54Z</time>
      </trkpt>
      <trkpt lat="45.88448" lon="5.35487">
        <ele>195.172</ele>
        <time>2019-10-05T12:41:24Z</time>
      </trkpt>
      <trkpt lat="45.88315" lon="5.35631">
        <ele>193.543</ele>
        <time>2019-10-05T12:41:54Z</time>
      </trkpt>
      <trkpt lat="45.88213" lon="5.35826">
        <ele>195.002</ele>
        <time>2019-10-05T12:42:27Z</time>
      </trkpt>
      <trkpt lat="45.88141" lon="5.3602">
        <ele>196.091</ele>
        <time>2019-10-05T12:42:57Z</time>
      </trkpt>
      <trkpt lat="45.88077" lon="5.36223">
        <ele>194.429</ele>
        <time>2019-10-05T12:43:27Z</time>
      </trkpt>
      <trkpt lat="45.87988" lon="5.36395">
        <ele>194.086</ele>
        <time>2019-10-05T12:43:57Z</time>
      </trkpt>
      <trkpt lat="45.87878" lon="5.3654">
        <ele>194.52</ele>
        <time>2019-10-05T12:44:27Z</time>
      </trkpt>
      <trkpt lat="45.87771" lon="5.36688">
        <ele>193.088</ele>
        <time>2019-10-05T12:44:57Z</time>
      </trkpt>
      <trkpt lat="45.87714" lon="5.36815">
        <ele>196.207</ele>
        <time>2019-10-05T12:47:57Z</time>
      </trkpt>
      <trkpt lat="45.87667" lon="5.36971">
        <ele>199.152</ele>
        <time>2019-10-05T12:48:33Z</time>
      </trkpt>
      <trkpt lat="45.87598" lon="5.37136">
        <ele>197.495</ele>
        <time>2019-10-05T12:49:03Z</time>
      </trkpt>
      <trkpt lat="45.87504" lon="5.3727">
        <ele>196.427</ele>
        <time>2019-10-05T12:49:33Z</time>
      </trkpt>
      <trkpt lat="45.87398" lon="5.37419">
        <ele>196.172</ele>
        <time>2019-10-05T12:50:03Z</time>
      </trkpt>
      <trkpt lat="45.87288" lon="5.37567">
        <ele>194.045</ele>
        <time>2019-10-05T12:50:33Z</time>
      </trkpt>
      <trkpt lat="45.87178" lon="5.37703">
        <ele>195.715</ele>
        <time>2019-10-05T12:51:03Z</time>
      </trkpt>
      <trkpt lat="45.87076" lon="5.37859">
        <ele>195.27</ele>
        <time>2019-10-05T12:51:33Z</time>
      </trkpt>
      <trkpt lat="45.87003" lon="5.38058">
        <ele>197.683</ele>
        <time>2019-10-05T12:52:06Z</time>
      </trkpt>
      <trkpt lat="45.86932" lon="5.38237">
        <ele>197.271</ele>
        <time>2019-10-05T12:52:36Z</time>
      </trkpt>
      <trkpt lat="45.86831" lon="5.3839">
        <ele>196.188</ele>
        <time>2019-10-05T12:53:06Z</time>
      </trkpt>
      <trkpt lat="45.86692" lon="5.38486">
        <ele>194.635</ele>
        <time>2019-10-05T12:53:36Z</time>
      </trkpt>
      <trkpt lat="45.8661" lon="5.38645">
        <ele>197.842</ele>
        <time>2019-10-05T12:54:06Z</time>
      </trkpt>
      <trkpt lat="45.86539" lon="5.38839">
        <ele>194.129</ele>
        <time>2019-10-05T12:54:36Z</time>
      </trkpt>
      <trkpt lat="45.86477" lon="5.39024">
        <ele>196.575</ele>
        <time>2019-10-05T12:55:06Z</time>
      </trkpt>
      <trkpt lat="45.86378" lon="5.39178">
        <ele>195.676</ele>
        <time>2019-10-05T12:55:36Z</time>
      </trkpt>
      <trkpt lat="45.86295" lon="5.39369">
        <ele>198.676</ele>
        <time>2019-10-05T12:56:09Z</time>
      </trkpt>
      <trkpt lat="45.86228" lon="5.3955">
        <ele>199.087</ele>
        <time>2019-10-05T12:56:39Z</time>
      </trkpt>
      <trkpt lat="45.86164" lon="5.39718">
        <ele>199.66</ele>
        <time>2019-10-05T12:57:09Z</time>
      </trkpt>
      <trkpt lat="45.86089" lon="5.39893">
        <ele>201.259</ele>
        <time>2019-10-05T12:57:39Z</time>
      </trkpt>
      <trkpt lat="45.85999" lon="5.40098">
        <ele>197.713</ele>
        <time>2019-10-05T12:58:09Z</time>
      </trkpt>
      <trkpt lat="45.85907" lon="5.40248">
        <ele>195.134</ele>
        <time>2019-10-05T12:58:39Z</time>
      </trkpt>
      <trkpt lat="45.85803" lon="5.40397">
        <ele>194.846</ele>
        <time>2019-10-05T12:59:09Z</time>
      </trkpt>
      <trkpt lat="45.85691" lon="5.40557">
        <ele>196.291</ele>
        <time>2019-10-05T12:59:42Z</time>
      </trkpt>
      <trkpt lat="45.85599" lon="5.40693">
        <ele>197.592</ele>
        <time>2019-10-05T13:00:12Z</time>
      </trkpt>
      <trkpt lat="45.85605" lon="5.40702">
        <ele>194.238</ele>
        <time>2019-10-05T13:02:48Z</time>
      </trkpt>
      <trkpt lat="45.85658" lon="5.40642">
        <ele>195.784</ele>
        <time>2019-10-05T13:03:42Z</time>
      </trkpt>
      <trkpt lat="45.85662" lon="5.40605">
        <ele>187.211</ele>
        <time>2019-10-05T13:05:15Z</time>
      </trkpt>
      <trkpt lat="45.85647" lon="5.40619">
        <ele>188.73</ele>
        <time>2019-10-05T13:06:24Z</time>
      </trkpt>
      <trkpt lat="45.856" lon="5.40695">
        <ele>191.063</ele>
        <time>2019-10-05T13:07:18Z</time>
      </trkpt>
      <trkpt lat="45.856" lon="5.40688">
        <ele>188.805</ele>
        <time>2019-10-05T13:12:42Z</time>
      </trkpt>
      <trkpt lat="45.85596" lon="5.40693">
        <ele>192.855</ele>
        <time>2019-10-05T13:21:18Z</time>
      </trkpt>
      <trkpt lat="45.85607" lon="5.40688">
        <ele>190.165</ele>
        <time>2019-10-05T13:22:39Z</time>
      </trkpt>
      <trkpt lat="45.85579" lon="5.4072">
        <ele>197.136</ele>
        <time>2019-10-05T13:25:48Z</time>
      </trkpt>
      <trkpt lat="45.85568" lon="5.40783">
        <ele>203.156</ele>
        <time>2019-10-05T13:26:21Z</time>
      </trkpt>
      <trkpt lat="45.85511" lon="5.40888">
        <ele>212.775</ele>
        <time>2019-10-05T13:26:51Z</time>
      </trkpt>
      <trkpt lat="45.85436" lon="5.40839">
        <ele>213.731</ele>
        <time>2019-10-05T13:27:21Z</time>
      </trkpt>
      <trkpt lat="45.85364" lon="5.40686">
        <ele>200.909</ele>
        <time>2019-10-05T13:27:51Z</time>
      </trkpt>
      <trkpt lat="45.8528" lon="5.40529">
        <ele>200.716</ele>
        <time>2019-10-05T13:28:24Z</time>
      </trkpt>
      <trkpt lat="45.85196" lon="5.4061">
        <ele>207.259</ele>
        <time>2019-10-05T13:28:54Z</time>
      </trkpt>
      <trkpt lat="45.85089" lon="5.40709">
        <ele>210.308</ele>
        <time>2019-10-05T13:29:24Z</time>
      </trkpt>
      <trkpt lat="45.84972" lon="5.40893">
        <ele>208.481</ele>
        <time>2019-10-05T13:29:54Z</time>
      </trkpt>
      <trkpt lat="45.84867" lon="5.41084">
        <ele>204.076</ele>
        <time>2019-10-05T13:30:24Z</time>
      </trkpt>
      <trkpt lat="45.84762" lon="5.41268">
        <ele>203.306</ele>
        <time>2019-10-05T13:30:54Z</time>
      </trkpt>
      <trkpt lat="45.84637" lon="5.4142">
        <ele>200.964</ele>
        <time>2019-10-05T13:31:24Z</time>
      </trkpt>
      <trkpt lat="45.8447" lon="5.41528">
        <ele>201.293</ele>
        <time>2019-10-05T13:31:57Z</time>
      </trkpt>
      <trkpt lat="45.8431" lon="5.41575">
        <ele>202.86</ele>
        <time>2019-10-05T13:32:27Z</time>
      </trkpt>
      <trkpt lat="45.84152" lon="5.41618">
        <ele>201.219</ele>
        <time>2019-10-05T13:32:57Z</time>
      </trkpt>
      <trkpt lat="45.84" lon="5.41647">
        <ele>204.277</ele>
        <time>2019-10-05T13:33:27Z</time>
      </trkpt>
      <trkpt lat="45.83874" lon="5.41785">
        <ele>204.933</ele>
        <time>2019-10-05T13:33:57Z</time>
      </trkpt>
      <trkpt lat="45.83776" lon="5.41973">
        <ele>203.701</ele>
        <time>2019-10-05T13:34:27Z</time>
      </trkpt>
      <trkpt lat="45.83685" lon="5.42241">
        <ele>196.996</ele>
        <time>2019-10-05T13:34:57Z</time>
      </trkpt>
      <trkpt lat="45.83607" lon="5.42475">
        <ele>194.41</ele>
        <time>2019-10-05T13:35:27Z</time>
      </trkpt>
      <trkpt lat="45.83486" lon="5.42703">
        <ele>200.726</ele>
        <time>2019-10-05T13:36:00Z</time>
      </trkpt>
      <trkpt lat="45.83354" lon="5.42857">
        <ele>203.247</ele>
        <time>2019-10-05T13:36:30Z</time>
      </trkpt>
      <trkpt lat="45.83217" lon="5.43007">
        <ele>201.641</ele>
        <time>2019-10-05T13:37:00Z</time>
      </trkpt>
      <trkpt lat="45.8308" lon="5.43165">
        <ele>200.392</ele>
        <time>2019-10-05T13:37:30Z</time>
      </trkpt>
      <trkpt lat="45.8294" lon="5.43278">
        <ele>200.17</ele>
        <time>2019-10-05T13:38:00Z</time>
      </trkpt>
      <trkpt lat="45.82774" lon="5.43364">
        <ele>198.189</ele>
        <time>2019-10-05T13:38:30Z</time>
      </trkpt>
      <trkpt lat="45.82632" lon="5.43294">
        <ele>198.922</ele>
        <time>2019-10-05T13:39:00Z</time>
      </trkpt>
      <trkpt lat="45.82618" lon="5.43039">
        <ele>199.266</ele>
        <time>2019-10-05T13:39:33Z</time>
      </trkpt>
      <trkpt lat="45.8261" lon="5.42809">
        <ele>198.595</ele>
        <time>2019-10-05T13:40:03Z</time>
      </trkpt>
      <trkpt lat="45.82604" lon="5.4258">
        <ele>198.838</ele>
        <time>2019-10-05T13:40:33Z</time>
      </trkpt>
      <trkpt lat="45.82598" lon="5.42407">
        <ele>201.439</ele>
        <time>2019-10-05T13:41:03Z</time>
      </trkpt>
      <trkpt lat="45.8256" lon="5.42247">
        <ele>199.65</ele>
        <time>2019-10-05T13:41:33Z</time>
      </trkpt>
      <trkpt lat="45.82552" lon="5.42085">
        <ele>204.574</ele>
        <time>2019-10-05T13:42:03Z</time>
      </trkpt>
      <trkpt lat="45.82461" lon="5.42012">
        <ele>205.556</ele>
        <time>2019-10-05T13:42:33Z</time>
      </trkpt>
      <trkpt lat="45.82319" lon="5.41993">
        <ele>204.253</ele>
        <time>2019-10-05T13:43:03Z</time>
      </trkpt>
      <trkpt lat="45.8219" lon="5.41947">
        <ele>201.03</ele>
        <time>2019-10-05T13:43:36Z</time>
      </trkpt>
      <trkpt lat="45.82059" lon="5.41929">
        <ele>199.651</ele>
        <time>2019-10-05T13:44:06Z</time>
      </trkpt>
      <trkpt lat="45.81905" lon="5.41885">
        <ele>200.221</ele>
        <time>2019-10-05T13:44:36Z</time>
      </trkpt>
      <trkpt lat="45.81819" lon="5.41735">
        <ele>200.17</ele>
        <time>2019-10-05T13:45:06Z</time>
      </trkpt>
      <trkpt lat="45.81734" lon="5.41601">
        <ele>200.721</ele>
        <time>2019-10-05T13:45:36Z</time>
      </trkpt>
      <trkpt lat="45.81696" lon="5.41419">
        <ele>201.158</ele>
        <time>2019-10-05T13:46:06Z</time>
      </trkpt>
      <trkpt lat="45.81654" lon="5.41258">
        <ele>200.66</ele>
        <time>2019-10-05T13:46:36Z</time>
      </trkpt>
      <trkpt lat="45.81608" lon="5.4105">
        <ele>204.769</ele>
        <time>2019-10-05T13:47:09Z</time>
      </trkpt>
      <trkpt lat="45.81572" lon="5.40888">
        <ele>200.624</ele>
        <time>2019-10-05T13:47:39Z</time>
      </trkpt>
      <trkpt lat="45.81556" lon="5.40765">
        <ele>213.933</ele>
        <time>2019-10-05T13:48:09Z</time>
      </trkpt>
      <trkpt lat="45.81517" lon="5.40694">
        <ele>221.108</ele>
        <time>2019-10-05T13:48:39Z</time>
      </trkpt>
      <trkpt lat="45.81538" lon="5.40582">
        <ele>221.397</ele>
        <time>2019-10-05T13:49:09Z</time>
      </trkpt>
      <trkpt lat="45.81559" lon="5.40478">
        <ele>228.163</ele>
        <time>2019-10-05T13:49:39Z</time>
      </trkpt>
      <trkpt lat="45.81514" lon="5.40412">
        <ele>231.6</ele>
        <time>2019-10-05T13:50:15Z</time>
      </trkpt>
      <trkpt lat="45.81359" lon="5.40371">
        <ele>227.542</ele>
        <time>2019-10-05T13:50:48Z</time>
      </trkpt>
      <trkpt lat="45.81174" lon="5.4032">
        <ele>221.856</ele>
        <time>2019-10-05T13:51:18Z</time>
      </trkpt>
      <trkpt lat="45.81064" lon="5.40295">
        <ele>219.597</ele>
        <time>2019-10-05T13:51:48Z</time>
      </trkpt>
      <trkpt lat="45.81025" lon="5.40347">
        <ele>221.353</ele>
        <time>2019-10-05T13:52:18Z</time>
      </trkpt>
      <trkpt lat="45.81046" lon="5.40401">
        <ele>217.358</ele>
        <time>2019-10-05T14:08:27Z</time>
      </trkpt>
      <trkpt lat="45.81065" lon="5.40384">
        <ele>216.574</ele>
        <time>2019-10-05T14:21:48Z</time>
      </trkpt>
      <trkpt lat="45.81041" lon="5.40294">
        <ele>225.273</ele>
        <time>2019-10-05T14:22:18Z</time>
      </trkpt>
      <trkpt lat="45.80939" lon="5.40259">
        <ele>232.185</ele>
        <time>2019-10-05T14:22:48Z</time>
      </trkpt>
      <trkpt lat="45.80824" lon="5.40298">
        <ele>223.391</ele>
        <time>2019-10-05T14:23:21Z</time>
      </trkpt>
      <trkpt lat="45.80749" lon="5.40564">
        <ele>218.017</ele>
        <time>2019-10-05T14:23:51Z</time>
      </trkpt>
      <trkpt lat="45.80678" lon="5.40807">
        <ele>214.449</ele>
        <time>2019-10-05T14:24:21Z</time>
      </trkpt>
      <trkpt lat="45.80612" lon="5.41029">
        <ele>217.2</ele>
        <time>2019-10-05T14:24:51Z</time>
      </trkpt>
      <trkpt lat="45.80556" lon="5.41076">
        <ele>218.996</ele>
        <time>2019-10-05T14:25:21Z</time>
      </trkpt>
      <trkpt lat="45.80508" lon="5.40985">
        <ele>225.573</ele>
        <time>2019-10-05T14:25:51Z</time>
      </trkpt>
      <trkpt lat="45.80403" lon="5.40912">
        <ele>232.615</ele>
        <time>2019-10-05T14:26:21Z</time>
      </trkpt>
      <trkpt lat="45.80421" lon="5.40933">
        <ele>228.603</ele>
        <time>2019-10-05T14:27:42Z</time>
      </trkpt>
      <trkpt lat="45.80526" lon="5.41025">
        <ele>224.454</ele>
        <time>2019-10-05T14:28:12Z</time>
      </trkpt>
      <trkpt lat="45.8054" lon="5.41219">
        <ele>212.057</ele>
        <time>2019-10-05T14:28:45Z</time>
      </trkpt>
      <trkpt lat="45.80464" lon="5.41385">
        <ele>214.581</ele>
        <time>2019-10-05T14:29:15Z</time>
      </trkpt>
      <trkpt lat="45.80378" lon="5.41547">
        <ele>219.246</ele>
        <time>2019-10-05T14:29:45Z</time>
      </trkpt>
      <trkpt lat="45.80299" lon="5.41712">
        <ele>222</ele>
        <time>2019-10-05T14:30:15Z</time>
      </trkpt>
      <trkpt lat="45.8021" lon="5.41677">
        <ele>216.871</ele>
        <time>2019-10-05T14:30:45Z</time>
      </trkpt>
      <trkpt lat="45.80094" lon="5.4156">
        <ele>220.85</ele>
        <time>2019-10-05T14:31:15Z</time>
      </trkpt>
      <trkpt lat="45.79985" lon="5.41509">
        <ele>228.238</ele>
        <time>2019-10-05T14:31:48Z</time>
      </trkpt>
      <trkpt lat="45.79887" lon="5.41392">
        <ele>225.534</ele>
        <time>2019-10-05T14:32:18Z</time>
      </trkpt>
      <trkpt lat="45.79764" lon="5.41436">
        <ele>225.191</ele>
        <time>2019-10-05T14:32:48Z</time>
      </trkpt>
      <trkpt lat="45.79696" lon="5.41479">
        <ele>228.716</ele>
        <time>2019-10-05T14:33:18Z</time>
      </trkpt>
      <trkpt lat="45.79638" lon="5.41484">
        <ele>236.535</ele>
        <time>2019-10-05T14:33:51Z</time>
      </trkpt>
      <trkpt lat="45.79565" lon="5.41497">
        <ele>250.808</ele>
        <time>2019-10-05T14:34:30Z</time>
      </trkpt>
      <trkpt lat="45.79516" lon="5.41432">
        <ele>248.21</ele>
        <time>2019-10-05T14:35:00Z</time>
      </trkpt>
      <trkpt lat="45.79518" lon="5.41526">
        <ele>240.567</ele>
        <time>2019-10-05T14:35:33Z</time>
      </trkpt>
      <trkpt lat="45.79463" lon="5.41554">
        <ele>244.295</ele>
        <time>2019-10-05T14:36:48Z</time>
      </trkpt>
      <trkpt lat="45.79376" lon="5.4157">
        <ele>247.863</ele>
        <time>2019-10-05T14:37:18Z</time>
      </trkpt>
      <trkpt lat="45.79469" lon="5.41552">
        <ele>248.319</ele>
        <time>2019-10-05T14:39:00Z</time>
      </trkpt>
      <trkpt lat="45.79559" lon="5.41544">
        <ele>242.371</ele>
        <time>2019-10-05T14:39:30Z</time>
      </trkpt>
      <trkpt lat="45.79543" lon="5.41501">
        <ele>244.14</ele>
        <time>2019-10-05T14:46:27Z</time>
      </trkpt>
      <trkpt lat="45.79483" lon="5.41361">
        <ele>244.543</ele>
        <time>2019-10-05T14:46:57Z</time>
      </trkpt>
      <trkpt lat="45.79396" lon="5.41271">
        <ele>244.652</ele>
        <time>2019-10-05T14:47:30Z</time>
      </trkpt>
      <trkpt lat="45.79359" lon="5.41172">
        <ele>252.022</ele>
        <time>2019-10-05T14:48:00Z</time>
      </trkpt>
      <trkpt lat="45.79379" lon="5.41065">
        <ele>258.672</ele>
        <time>2019-10-05T14:48:30Z</time>
      </trkpt>
      <trkpt lat="45.79363" lon="5.40963">
        <ele>263.49</ele>
        <time>2019-10-05T14:49:00Z</time>
      </trkpt>
      <trkpt lat="45.79285" lon="5.40862">
        <ele>264.436</ele>
        <time>2019-10-05T14:49:30Z</time>
      </trkpt>
      <trkpt lat="45.79205" lon="5.40781">
        <ele>266.303</ele>
        <time>2019-10-05T14:50:00Z</time>
      </trkpt>
      <trkpt lat="45.79125" lon="5.40753">
        <ele>271.342</ele>
        <time>2019-10-05T14:50:30Z</time>
      </trkpt>
      <trkpt lat="45.79066" lon="5.40736">
        <ele>278.614</ele>
        <time>2019-10-05T14:51:00Z</time>
      </trkpt>
      <trkpt lat="45.78991" lon="5.40724">
        <ele>282.753</ele>
        <time>2019-10-05T14:51:33Z</time>
      </trkpt>
      <trkpt lat="45.78917" lon="5.40744">
        <ele>284.972</ele>
        <time>2019-10-05T14:52:03Z</time>
      </trkpt>
      <trkpt lat="45.78806" lon="5.40727">
        <ele>283.239</ele>
        <time>2019-10-05T14:52:33Z</time>
      </trkpt>
      <trkpt lat="45.78713" lon="5.40693">
        <ele>286.853</ele>
        <time>2019-10-05T14:53:03Z</time>
      </trkpt>
      <trkpt lat="45.78649" lon="5.40649">
        <ele>294.326</ele>
        <time>2019-10-05T14:53:33Z</time>
      </trkpt>
      <trkpt lat="45.78597" lon="5.40597">
        <ele>298.901</ele>
        <time>2019-10-05T14:54:03Z</time>
      </trkpt>
      <trkpt lat="45.78541" lon="5.40615">
        <ele>307.609</ele>
        <time>2019-10-05T14:54:36Z</time>
      </trkpt>
      <trkpt lat="45.78539" lon="5.40665">
        <ele>305.811</ele>
        <time>2019-10-05T14:55:24Z</time>
      </trkpt>
      <trkpt lat="45.78604" lon="5.40698">
        <ele>309.09</ele>
        <time>2019-10-05T14:55:54Z</time>
      </trkpt>
      <trkpt lat="45.78622" lon="5.40767">
        <ele>308.103</ele>
        <time>2019-10-05T14:56:24Z</time>
      </trkpt>
      <trkpt lat="45.78599" lon="5.40795">
        <ele>306.289</ele>
        <time>2019-10-05T14:59:36Z</time>
      </trkpt>
    </trkseg>
  </trk>
</gpx>